Time,TemperatureF,DewpointF,PressureIn,WindDirection,WindDirectionDegrees,WindSpeedMPH,WindSpeedGustMPH,Humidity,HourlyPrecipIn,Conditions,Clouds,dailyrainin,SolarRadiationWatts/m^2,SoftwareType,DateUTC
2013-04-16 00:22:00,35.0,29.0,-100.00,East,99,3.0,6.0,78,0.00,,,0.00,0.000000,,2013-04-16 06:22:00,
2013-04-16 00:32:00,35.0,29.0,-100.00,East,99,3.0,6.0,78,0.00,,,0.00,0.000000,,2013-04-16 06:32:00,
2013-04-16 00:42:00,35.0,29.0,-100.00,East,99,3.0,6.0,78,0.00,,,0.00,0.000000,,2013-04-16 06:42:00,
2013-04-16 00:52:00,35.0,29.0,-100.00,East,99,3.0,6.0,78,0.00,,,0.00,0.000000,,2013-04-16 06:52:00,
2013-04-16 01:22:00,34.0,28.0,-100.00,East,92,6.0,9.0,79,0.00,,,0.00,0.000000,,2013-04-16 07:22:00,
2013-04-16 02:22:00,49.0,23.0,-100.00,SSW,197,11.0,20.0,36,-99.99,,,0.00,0.000000,,2013-04-16 08:22:00,
2013-04-16 02:32:00,49.0,23.0,-100.00,SSW,197,11.0,20.0,36,-99.99,,,0.00,0.000000,,2013-04-16 08:32:00,
2013-04-16 02:42:00,49.0,23.0,-100.00,SSW,197,11.0,20.0,36,-99.99,,,0.00,0.000000,,2013-04-16 08:42:00,
2013-04-16 02:51:00,49.0,23.0,-100.00,SSW,197,11.0,20.0,36,-99.99,,,0.00,0.000000,,2013-04-16 08:51:00,
2013-04-16 03:22:00,52.0,25.0,-100.00,SSW,198,15.0,24.0,34,0.00,,,0.00,0.000000,,2013-04-16 09:22:00,
2013-04-16 03:32:00,52.0,25.0,-100.00,SSW,198,15.0,24.0,34,0.00,,,0.00,0.000000,,2013-04-16 09:32:00,
2013-04-16 03:42:00,52.0,25.0,-100.00,SSW,198,15.0,24.0,34,0.00,,,0.00,0.000000,,2013-04-16 09:42:00,
2013-04-16 03:52:00,52.0,25.0,-100.00,SSW,198,15.0,24.0,34,0.00,,,0.00,0.000000,,2013-04-16 09:52:00,
2013-04-16 04:22:00,52.0,25.0,-100.00,SSW,195,16.0,27.0,35,0.00,,,0.00,0.000000,,2013-04-16 10:22:00,
2013-04-16 04:32:00,52.0,25.0,-100.00,SSW,195,16.0,27.0,35,0.00,,,0.00,0.000000,,2013-04-16 10:32:00,
2013-04-16 04:42:00,52.0,25.0,-100.00,SSW,195,16.0,27.0,35,0.00,,,0.00,0.000000,,2013-04-16 10:42:00,
2013-04-16 04:52:00,52.0,25.0,-100.00,SSW,195,16.0,27.0,35,0.00,,,0.00,0.000000,,2013-04-16 10:52:00,
2013-04-16 05:22:00,50.0,21.0,-100.00,SSW,203,17.0,30.0,32,0.00,,,0.00,0.000000,,2013-04-16 11:22:00,
2013-04-16 05:32:00,50.0,21.0,-100.00,SSW,203,17.0,30.0,32,0.00,,,0.00,0.000000,,2013-04-16 11:32:00,
2013-04-16 05:42:00,50.0,21.0,-100.00,SSW,203,17.0,30.0,32,0.00,,,0.00,0.000000,,2013-04-16 11:42:00,
2013-04-16 05:52:00,50.0,21.0,-100.00,SSW,203,17.0,30.0,32,0.00,,,0.00,0.000000,,2013-04-16 11:52:00,
2013-04-16 06:22:00,51.0,23.0,-100.00,SSW,203,16.0,32.0,33,0.00,,,0.00,0.000000,,2013-04-16 12:22:00,
2013-04-16 06:32:00,51.0,23.0,-100.00,SSW,203,16.0,32.0,33,0.00,,,0.00,0.000000,,2013-04-16 12:32:00,
2013-04-16 06:42:00,51.0,23.0,-100.00,SSW,203,16.0,32.0,33,0.00,,,0.00,0.000000,,2013-04-16 12:42:00,
2013-04-16 06:52:00,51.0,23.0,-100.00,SSW,203,16.0,32.0,33,0.00,,,0.00,0.000000,,2013-04-16 12:52:00,
2013-04-16 07:22:00,50.0,23.0,-100.00,SSW,194,17.0,31.0,34,0.00,,,0.00,4.000000,,2013-04-16 13:22:00,
2013-04-16 07:32:00,50.0,23.0,-100.00,SSW,194,17.0,31.0,34,0.00,,,0.00,4.000000,,2013-04-16 13:32:00,
2013-04-16 07:42:00,50.0,23.0,-100.00,SSW,194,17.0,31.0,34,0.00,,,0.00,4.000000,,2013-04-16 13:42:00,
2013-04-16 07:52:00,50.0,23.0,-100.00,SSW,194,17.0,31.0,34,0.00,,,0.00,4.000000,,2013-04-16 13:52:00,
2013-04-16 08:22:00,50.0,26.0,-100.00,SSW,198,21.0,35.0,39,0.00,,,0.00,117.000000,,2013-04-16 14:22:00,
2013-04-16 08:32:00,50.0,26.0,-100.00,SSW,198,21.0,35.0,39,0.00,,,0.00,117.000000,,2013-04-16 14:32:00,
2013-04-16 08:42:00,50.0,26.0,-100.00,SSW,198,21.0,35.0,39,0.00,,,0.00,117.000000,,2013-04-16 14:42:00,
2013-04-16 08:52:00,50.0,26.0,-100.00,SSW,198,21.0,35.0,39,0.00,,,0.00,117.000000,,2013-04-16 14:52:00,
2013-04-16 09:22:00,53.0,25.0,-100.00,SW,215,20.0,37.0,33,0.00,,,0.00,361.000000,,2013-04-16 15:22:00,
2013-04-16 09:32:00,53.0,25.0,-100.00,SW,215,20.0,37.0,33,0.00,,,0.00,361.000000,,2013-04-16 15:32:00,
2013-04-16 09:43:00,53.0,25.0,-100.00,SW,215,20.0,37.0,33,0.00,,,0.00,361.000000,,2013-04-16 15:43:00,
2013-04-16 09:52:00,53.0,25.0,-100.00,SW,215,20.0,37.0,33,0.00,,,0.00,361.000000,,2013-04-16 15:52:00,
2013-04-16 10:23:00,55.0,21.0,-100.00,SW,220,21.0,42.0,26,0.00,,,0.00,665.000000,,2013-04-16 16:23:00,
2013-04-16 10:32:00,55.0,21.0,-100.00,SW,220,21.0,42.0,26,0.00,,,0.00,665.000000,,2013-04-16 16:32:00,
2013-04-16 10:42:00,55.0,21.0,-100.00,SW,220,21.0,42.0,26,0.00,,,0.00,665.000000,,2013-04-16 16:42:00,
2013-04-16 10:52:00,55.0,21.0,-100.00,SW,220,21.0,42.0,26,0.00,,,0.00,665.000000,,2013-04-16 16:52:00,
2013-04-16 11:22:00,60.0,21.0,-100.00,SSW,201,23.0,38.0,22,0.00,,,0.00,964.000000,,2013-04-16 17:22:00,
2013-04-16 11:32:00,60.0,21.0,-100.00,SSW,201,23.0,38.0,22,0.00,,,0.00,964.000000,,2013-04-16 17:32:00,
2013-04-16 11:43:00,60.0,21.0,-100.00,SSW,201,23.0,38.0,22,0.00,,,0.00,964.000000,,2013-04-16 17:43:00,
2013-04-16 11:52:00,60.0,21.0,-100.00,SSW,201,23.0,38.0,22,0.00,,,0.00,964.000000,,2013-04-16 17:52:00,
2013-04-16 12:22:00,60.0,19.0,-100.00,SSW,213,20.0,42.0,20,0.00,,,0.00,1089.000000,,2013-04-16 18:22:00,
2013-04-16 12:32:00,60.0,19.0,-100.00,SSW,213,20.0,42.0,20,0.00,,,0.00,1089.000000,,2013-04-16 18:32:00,
2013-04-16 12:42:00,60.0,19.0,-100.00,SSW,213,20.0,42.0,20,0.00,,,0.00,1089.000000,,2013-04-16 18:42:00,
2013-04-16 12:52:00,60.0,19.0,-100.00,SSW,213,20.0,42.0,20,0.00,,,0.00,1089.000000,,2013-04-16 18:52:00,
2013-04-16 13:22:00,63.0,19.0,-100.00,SW,214,25.0,45.0,18,0.00,,,0.00,1088.000000,,2013-04-16 19:22:00,
2013-04-16 13:32:00,63.0,19.0,-100.00,SW,214,25.0,45.0,18,0.00,,,0.00,1088.000000,,2013-04-16 19:32:00,
2013-04-16 13:42:00,63.0,19.0,-100.00,SW,214,25.0,45.0,18,0.00,,,0.00,1088.000000,,2013-04-16 19:42:00,
2013-04-16 13:52:00,63.0,19.0,-100.00,SW,214,25.0,45.0,18,0.00,,,0.00,1088.000000,,2013-04-16 19:52:00,
2013-04-16 14:22:00,64.0,17.0,-100.00,SW,224,23.0,43.0,16,0.00,,,0.00,1072.000000,,2013-04-16 20:22:00,
2013-04-16 14:32:00,64.0,17.0,-100.00,SW,224,23.0,43.0,16,0.00,,,0.00,1072.000000,,2013-04-16 20:32:00,
2013-04-16 14:42:00,64.0,17.0,-100.00,SW,224,23.0,43.0,16,0.00,,,0.00,1072.000000,,2013-04-16 20:42:00,
2013-04-16 14:51:00,64.0,17.0,-100.00,SW,224,23.0,43.0,16,0.00,,,0.00,1072.000000,,2013-04-16 20:51:00,
2013-04-16 15:22:00,66.0,17.0,-100.00,SW,228,23.0,42.0,15,0.00,,,0.00,1000.000000,,2013-04-16 21:22:00,
2013-04-16 15:32:00,66.0,17.0,-100.00,SW,228,23.0,42.0,15,0.00,,,0.00,1000.000000,,2013-04-16 21:32:00,
2013-04-16 15:42:00,66.0,17.0,-100.00,SW,228,23.0,42.0,15,0.00,,,0.00,1000.000000,,2013-04-16 21:42:00,
2013-04-16 15:52:00,66.0,17.0,-100.00,SW,228,23.0,42.0,15,0.00,,,0.00,1000.000000,,2013-04-16 21:52:00,
2013-04-16 16:22:00,66.0,19.0,-100.00,WSW,240,20.0,42.0,16,0.00,,,0.00,805.000000,,2013-04-16 22:22:00,
2013-04-16 16:32:00,66.0,19.0,-100.00,WSW,240,20.0,42.0,16,0.00,,,0.00,805.000000,,2013-04-16 22:32:00,
2013-04-16 16:42:00,66.0,19.0,-100.00,WSW,240,20.0,42.0,16,0.00,,,0.00,805.000000,,2013-04-16 22:42:00,
2013-04-16 16:52:00,66.0,19.0,-100.00,WSW,240,20.0,42.0,16,0.00,,,0.00,805.000000,,2013-04-16 22:52:00,
2013-04-16 17:22:00,61.0,20.0,-100.00,WNW,291,16.0,35.0,20,0.00,,,0.00,505.000000,,2013-04-16 23:22:00,
2013-04-16 17:32:00,61.0,20.0,-100.00,WNW,291,16.0,35.0,20,0.00,,,0.00,505.000000,,2013-04-16 23:32:00,
2013-04-16 17:42:00,61.0,20.0,-100.00,WNW,291,16.0,35.0,20,0.00,,,0.00,505.000000,,2013-04-16 23:42:00,
2013-04-16 17:52:00,61.0,20.0,-100.00,WNW,291,16.0,35.0,20,0.00,,,0.00,505.000000,,2013-04-16 23:52:00,
2013-04-16 18:22:00,60.0,22.0,-100.00,West,277,14.0,25.0,23,0.00,,,0.00,449.000000,,2013-04-17 00:22:00,
2013-04-16 18:32:00,60.0,22.0,-100.00,West,277,14.0,25.0,23,0.00,,,0.00,449.000000,,2013-04-17 00:32:00,
2013-04-16 18:42:00,60.0,22.0,-100.00,West,277,14.0,25.0,23,0.00,,,0.00,449.000000,,2013-04-17 00:42:00,
2013-04-16 18:52:00,60.0,22.0,-100.00,West,277,14.0,25.0,23,0.00,,,0.00,449.000000,,2013-04-17 00:52:00,
2013-04-16 19:22:00,50.0,28.0,-100.00,NW,313,16.0,24.0,43,0.00,,,0.00,108.000000,,2013-04-17 01:22:00,
2013-04-16 19:32:00,50.0,28.0,-100.00,NW,313,16.0,24.0,43,0.00,,,0.00,108.000000,,2013-04-17 01:32:00,
2013-04-16 19:42:00,50.0,28.0,-100.00,NW,313,16.0,24.0,43,0.00,,,0.00,108.000000,,2013-04-17 01:42:00,
2013-04-16 19:52:00,50.0,28.0,-100.00,NW,313,16.0,24.0,43,0.00,,,0.00,108.000000,,2013-04-17 01:52:00,
2013-04-16 20:22:00,47.0,29.0,-100.00,NW,313,13.0,21.0,50,0.00,,,0.00,13.000000,,2013-04-17 02:22:00,
2013-04-16 20:32:00,47.0,29.0,-100.00,NW,313,13.0,21.0,50,0.00,,,0.00,13.000000,,2013-04-17 02:32:00,
2013-04-16 20:42:00,47.0,29.0,-100.00,NW,313,13.0,21.0,50,0.00,,,0.00,13.000000,,2013-04-17 02:42:00,
2013-04-16 20:52:00,47.0,29.0,-100.00,NW,313,13.0,21.0,50,0.00,,,0.00,13.000000,,2013-04-17 02:52:00,
2013-04-16 21:22:00,45.0,30.0,-100.00,NW,319,9.0,17.0,55,0.00,,,0.00,0.000000,,2013-04-17 03:22:00,
2013-04-16 21:32:00,45.0,30.0,-100.00,NW,319,9.0,17.0,55,0.00,,,0.00,0.000000,,2013-04-17 03:32:00,
2013-04-16 21:42:00,45.0,30.0,-100.00,NW,319,9.0,17.0,55,0.00,,,0.00,0.000000,,2013-04-17 03:42:00,
2013-04-16 21:53:00,45.0,30.0,-100.00,NW,319,9.0,17.0,55,0.00,,,0.00,0.000000,,2013-04-17 03:53:00,
2013-04-16 22:22:00,43.0,29.0,-100.00,NW,320,11.0,19.0,58,0.00,,,0.00,0.000000,,2013-04-17 04:22:00,
2013-04-16 22:33:00,43.0,29.0,-100.00,NW,320,11.0,19.0,58,0.00,,,0.00,0.000000,,2013-04-17 04:33:00,
2013-04-16 22:42:00,43.0,29.0,-100.00,NW,320,11.0,19.0,58,0.00,,,0.00,0.000000,,2013-04-17 04:42:00,
2013-04-16 22:52:00,43.0,29.0,-100.00,NW,320,11.0,19.0,58,0.00,,,0.00,0.000000,,2013-04-17 04:52:00,
2013-04-16 23:22:00,40.0,30.0,-100.00,NW,320,8.0,15.0,68,0.00,,,0.00,0.000000,,2013-04-17 05:22:00,
2013-04-16 23:32:00,40.0,30.0,-100.00,NW,320,8.0,15.0,68,0.00,,,0.00,0.000000,,2013-04-17 05:32:00,
2013-04-16 23:42:00,40.0,30.0,-100.00,NW,320,8.0,15.0,68,0.00,,,0.00,0.000000,,2013-04-17 05:42:00,
2013-04-16 23:52:00,40.0,30.0,-100.00,NW,320,8.0,15.0,68,0.00,,,0.00,0.000000,,2013-04-17 05:52:00,